Time;durP1;ratioP1;P1;durP2;ratioP2;P2;SDS_P1;SDS_P2;PMS_P1;PMS_P2;Temp;Humidity;BMP_temperature;BMP_pressure;BME280_temperature;BME280_humidity;BME280_pressure;Samples;Min_cycle;Max_cycle;Signal;HPM_P1;HPM_P2
2021/08/17 00:00:29;;;;;;;4.03;1.67;;;12.40;99.90;;;;;;5037096;28;20539;-90
2021/08/17 00:02:55;;;;;;;3.60;1.67;;;12.30;99.90;;;;;;5037210;28;20033;-90
2021/08/17 00:05:21;;;;;;;1.95;1.25;;;12.40;99.90;;;;;;5037216;28;20124;-90
2021/08/17 00:07:47;;;;;;;2.22;1.50;;;12.30;99.90;;;;;;5019350;28;20028;-91
2021/08/17 00:10:14;;;;;;;3.15;1.45;;;12.30;99.90;;;;;;5019818;28;20029;-91
2021/08/17 00:12:39;;;;;;;3.63;1.73;;;12.20;99.90;;;;;;5044874;28;20029;-90
2021/08/17 00:15:08;;;;;;;3.72;2.33;;;12.20;99.90;;;;;;5020497;28;20028;-92
2021/08/17 00:17:34;;;;;;;2.50;1.77;;;12.20;99.90;;;;;;5033668;28;20029;-91
2021/08/17 00:20:00;;;;;;;2.88;1.40;;;12.10;99.90;;;;;;5019285;28;20502;-92
2021/08/17 00:22:26;;;;;;;4.03;2.15;;;12.10;99.90;;;;;;5036255;28;20032;-89
2021/08/17 00:24:52;;;;;;;2.95;1.98;;;12.00;99.90;;;;;;5040387;28;20246;-90
2021/08/17 00:27:19;;;;;;;3.33;1.95;;;12.00;99.90;;;;;;5023551;28;20037;-89
2021/08/17 00:29:45;;;;;;;3.92;2.17;;;12.00;99.90;;;;;;5040616;28;20025;-90
2021/08/17 00:32:10;;;;;;;2.20;1.60;;;12.00;99.90;;;;;;5040914;28;20028;-89
2021/08/17 00:34:36;;;;;;;3.33;1.83;;;12.00;99.90;;;;;;5040232;28;20448;-89
2021/08/17 00:37:03;;;;;;;4.45;1.40;;;12.00;99.90;;;;;;5041332;28;20041;-89
2021/08/17 00:39:30;;;;;;;2.63;1.92;;;12.00;99.90;;;;;;5040665;28;20029;-89
2021/08/17 00:41:57;;;;;;;2.28;1.63;;;11.90;99.90;;;;;;5040820;28;20044;-89
2021/08/17 00:44:24;;;;;;;3.72;2.40;;;11.90;99.90;;;;;;5040808;28;20033;-89
2021/08/17 00:46:50;;;;;;;2.97;2.03;;;11.90;99.90;;;;;;5040789;28;20029;-90
2021/08/17 00:49:18;;;;;;;6.07;2.47;;;11.90;99.90;;;;;;5038494;28;20025;-90
2021/08/17 00:51:44;;;;;;;4.05;2.30;;;11.90;99.90;;;;;;5039416;28;20044;-91
2021/08/17 00:54:09;;;;;;;4.20;2.22;;;11.80;99.90;;;;;;5036617;28;20029;-89
2021/08/17 00:56:37;;;;;;;3.30;2.50;;;11.90;99.90;;;;;;5036002;28;20710;-89
2021/08/17 00:59:03;;;;;;;5.53;2.60;;;11.80;99.90;;;;;;5036197;28;20128;-90
2021/08/17 01:01:29;;;;;;;3.72;2.05;;;11.80;99.90;;;;;;5035989;28;20040;-89
2021/08/17 01:03:59;;;;;;;5.72;2.33;;;11.80;99.90;;;;;;5035425;28;20399;-89
2021/08/17 01:06:26;;;;;;;4.75;3.10;;;11.80;99.90;;;;;;5040524;28;20026;-89
2021/08/17 01:08:52;;;;;;;6.35;2.70;;;11.80;99.90;;;;;;5037695;28;20033;-90
2021/08/17 01:11:18;;;;;;;4.75;2.90;;;11.80;99.90;;;;;;5038888;28;20036;-89
2021/08/17 01:13:44;;;;;;;4.80;2.97;;;11.80;99.90;;;;;;5037883;28;20603;-89
2021/08/17 01:16:09;;;;;;;6.60;2.80;;;11.80;99.90;;;;;;5040139;28;20025;-89
2021/08/17 01:18:35;;;;;;;5.70;3.28;;;11.80;99.90;;;;;;5037987;28;20506;-90
2021/08/17 01:21:05;;;;;;;6.40;3.22;;;11.70;99.90;;;;;;5039138;28;20033;-90
2021/08/17 01:23:32;;;;;;;6.20;2.90;;;11.60;99.90;;;;;;5038622;28;20030;-90
2021/08/17 01:25:58;;;;;;;4.75;2.88;;;11.60;99.90;;;;;;5039168;28;20053;-89
2021/08/17 01:28:24;;;;;;;7.13;3.72;;;11.50;99.90;;;;;;5039370;28;20091;-88
2021/08/17 01:31:05;;;;;;;6.53;3.22;;;11.50;99.90;;;;;;5022458;28;20116;-90
2021/08/17 01:33:40;;;;;;;4.55;3.00;;;11.50;99.90;;;;;;5038695;28;20026;-89
2021/08/17 01:36:06;;;;;;;6.75;3.17;;;11.40;99.90;;;;;;5005268;28;20108;-89
2021/08/17 01:38:32;;;;;;;3.88;2.78;;;11.40;99.90;;;;;;5036942;28;20053;-89
2021/08/17 01:40:58;;;;;;;5.82;3.25;;;11.40;99.90;;;;;;5021321;28;20092;-89
2021/08/17 01:43:24;;;;;;;5.93;3.45;;;11.40;99.90;;;;;;5039934;28;20027;-91
2021/08/17 01:46:00;;;;;;;5.15;3.28;;;11.30;99.90;;;;;;5039235;28;20116;-90
2021/08/17 01:48:42;;;;;;;6.47;3.20;;;11.30;99.90;;;;;;5026917;28;20034;-89
2021/08/17 01:51:09;;;;;;;6.43;3.17;;;11.20;99.90;;;;;;5023909;28;20032;-88
2021/08/17 01:53:36;;;;;;;6.55;3.80;;;11.20;99.90;;;;;;5038166;28;20022;-90
2021/08/17 01:56:20;;;;;;;10.55;3.70;;;11.10;99.90;;;;;;5038089;28;20029;-89
2021/08/17 01:58:46;;;;;;;6.18;2.92;;;11.00;99.90;;;;;;5020483;28;20434;-89
2021/08/17 02:01:12;;;;;;;5.45;3.72;;;11.00;99.90;;;;;;5035823;28;20033;-90
2021/08/17 02:03:39;;;;;;;4.43;3.05;;;11.00;99.90;;;;;;5036538;28;20116;-89
2021/08/17 02:06:09;;;;;;;8.02;3.47;;;11.00;99.90;;;;;;5038135;28;20053;-90
2021/08/17 02:08:35;;;;;;;8.05;3.88;;;10.90;99.90;;;;;;5019780;28;20044;-90
2021/08/17 02:11:01;;;;;;;6.40;3.47;;;10.90;99.90;;;;;;5019689;28;20550;-89
2021/08/17 02:13:28;;;;;;;5.85;3.13;;;10.90;99.90;;;;;;5040268;28;20036;-90
2021/08/17 02:16:25;;;;;;;5.07;3.38;;;10.90;99.90;;;;;;5041468;28;20110;-89
2021/08/17 02:19:23;;;;;;;6.47;3.78;;;10.90;99.90;;;;;;5038623;28;20451;-89
2021/08/17 02:21:49;;;;;;;4.65;3.00;;;10.80;99.90;;;;;;5025278;28;20042;-89
2021/08/17 02:24:15;;;;;;;6.32;3.83;;;10.90;99.90;;;;;;5006212;28;20087;-90
2021/08/17 02:26:41;;;;;;;7.05;3.78;;;10.80;99.90;;;;;;5038005;28;20485;-90
2021/08/17 02:29:07;;;;;;;6.20;4.03;;;10.80;99.90;;;;;;5040011;28;20040;-89
2021/08/17 02:31:33;;;;;;;7.45;4.00;;;10.80;99.90;;;;;;5011285;28;20041;-89
2021/08/17 02:33:59;;;;;;;7.10;3.78;;;10.80;99.90;;;;;;5005253;28;20480;-89
2021/08/17 02:36:25;;;;;;;10.82;4.28;;;10.90;99.90;;;;;;5044930;23;21208;-82
2021/08/17 02:38:51;;;;;;;6.07;3.92;;;10.90;99.90;;;;;;5072351;28;20383;-82
2021/08/17 02:41:16;;;;;;;7.78;4.03;;;10.90;99.90;;;;;;5057695;28;20036;-80
2021/08/17 02:43:42;;;;;;;10.30;4.35;;;11.00;99.90;;;;;;5049017;28;20622;-84
2021/08/17 02:46:08;;;;;;;5.15;3.67;;;11.00;99.90;;;;;;5040403;28;20549;-83
2021/08/17 02:48:33;;;;;;;6.72;3.60;;;10.90;99.90;;;;;;5051117;28;20041;-84
2021/08/17 02:50:59;;;;;;;6.13;4.10;;;10.90;99.90;;;;;;5043449;23;20033;-83
2021/08/17 02:53:25;;;;;;;6.18;4.32;;;10.90;99.90;;;;;;4962814;28;20533;-83
2021/08/17 02:55:50;;;;;;;6.88;3.83;;;10.80;99.90;;;;;;4989521;28;20044;-83
2021/08/17 02:58:16;;;;;;;6.57;4.47;;;10.80;99.90;;;;;;4994825;28;20085;-82
2021/08/17 03:00:44;;;;;;;6.90;3.90;;;10.80;99.90;;;;;;5008885;28;20521;-82
2021/08/17 03:03:11;;;;;;;9.50;4.32;;;10.80;99.90;;;;;;4990715;28;20052;-82
2021/08/17 03:05:37;;;;;;;5.78;4.38;;;10.80;99.90;;;;;;5003908;28;20043;-82
2021/08/17 03:08:04;;;;;;;9.85;4.38;;;10.80;99.90;;;;;;4990487;28;20038;-82
2021/08/17 03:10:32;;;;;;;6.78;4.13;;;10.80;99.90;;;;;;5004448;28;20037;-82
2021/08/17 03:12:58;;;;;;;8.40;4.43;;;10.70;99.90;;;;;;4970952;28;20076;-82
2021/08/17 03:15:23;;;;;;;10.02;4.25;;;10.80;99.90;;;;;;4994075;28;20403;-82
2021/08/17 03:17:50;;;;;;;10.60;4.22;;;10.70;99.90;;;;;;4988257;28;20404;-82
2021/08/17 03:20:17;;;;;;;7.88;4.55;;;10.80;99.90;;;;;;5007496;28;20025;-83
2021/08/17 03:22:43;;;;;;;8.05;4.38;;;10.80;99.90;;;;;;4987896;28;20042;-82
2021/08/17 03:25:11;;;;;;;6.47;4.07;;;10.80;99.90;;;;;;4994335;28;20487;-82
2021/08/17 03:27:38;;;;;;;7.68;3.95;;;10.90;99.90;;;;;;4990538;28;20037;-82
2021/08/17 03:30:06;;;;;;;10.25;3.90;;;10.90;99.90;;;;;;4992748;28;20550;-82
2021/08/17 03:32:32;;;;;;;7.25;4.38;;;10.90;99.90;;;;;;4989942;28;20129;-82
2021/08/17 03:34:58;;;;;;;6.85;3.90;;;10.90;99.90;;;;;;4973088;28;20543;-82
2021/08/17 03:37:23;;;;;;;7.55;4.30;;;10.90;99.90;;;;;;4995303;28;20037;-82
2021/08/17 03:39:49;;;;;;;10.52;3.90;;;10.90;99.90;;;;;;4986333;28;20105;-82
2021/08/17 03:42:15;;;;;;;9.45;3.85;;;11.00;99.90;;;;;;5002903;28;20039;-82
2021/08/17 03:44:40;;;;;;;7.07;4.13;;;11.00;99.90;;;;;;4992601;28;20034;-82
2021/08/17 03:47:06;;;;;;;8.48;4.28;;;11.00;99.90;;;;;;4993624;28;20471;-82
2021/08/17 03:49:32;;;;;;;7.95;3.92;;;11.10;99.90;;;;;;4976645;28;20136;-82
2021/08/17 03:51:57;;;;;;;7.20;4.00;;;11.10;99.90;;;;;;5005513;28;20391;-82
2021/08/17 03:54:23;;;;;;;9.88;4.75;;;11.10;99.90;;;;;;4995286;28;20382;-82
2021/08/17 03:56:48;;;;;;;8.07;4.22;;;11.10;99.90;;;;;;4993424;28;20037;-83
2021/08/17 03:59:14;;;;;;;11.98;4.32;;;11.10;99.90;;;;;;5029090;28;20036;-82
2021/08/17 04:01:40;;;;;;;8.98;3.88;;;11.00;99.90;;;;;;5000814;28;20227;-82
2021/08/17 04:04:05;;;;;;;11.82;4.60;;;11.00;99.90;;;;;;5026085;28;20119;-82
2021/08/17 04:06:31;;;;;;;8.00;4.30;;;11.00;99.90;;;;;;4998124;28;20043;-82
2021/08/17 04:08:57;;;;;;;7.70;4.20;;;11.00;99.90;;;;;;5013027;28;20060;-82
2021/08/17 04:11:23;;;;;;;7.97;4.57;;;11.00;99.90;;;;;;5027548;28;20032;-82
2021/08/17 04:13:48;;;;;;;8.95;4.68;;;11.00;99.90;;;;;;5009697;28;20033;-82
2021/08/17 04:16:14;;;;;;;7.47;4.30;;;11.00;99.90;;;;;;5015446;28;20064;-82
2021/08/17 04:18:40;;;;;;;8.05;4.95;;;11.00;99.90;;;;;;5004294;28;20038;-82
2021/08/17 04:21:06;;;;;;;7.88;4.82;;;11.10;99.90;;;;;;5024092;28;20404;-82
2021/08/17 04:23:31;;;;;;;7.47;4.18;;;11.10;99.90;;;;;;5011600;28;20086;-82
2021/08/17 04:25:58;;;;;;;7.70;4.53;;;11.10;99.90;;;;;;5010940;28;20037;-82
2021/08/17 04:28:24;;;;;;;10.77;4.72;;;11.10;99.90;;;;;;5013662;28;20038;-82
2021/08/17 04:30:50;;;;;;;7.85;4.00;;;11.10;99.90;;;;;;5016024;28;20071;-83
2021/08/17 04:33:16;;;;;;;12.00;5.45;;;11.10;99.90;;;;;;5033974;28;20040;-83
2021/08/17 04:35:41;;;;;;;8.48;4.32;;;11.00;99.90;;;;;;4997569;28;20056;-83
2021/08/17 04:38:07;;;;;;;9.70;4.70;;;11.00;99.90;;;;;;5028390;28;20106;-83
2021/08/17 04:40:33;;;;;;;9.25;4.70;;;11.10;99.90;;;;;;5023516;28;20029;-82
2021/08/17 04:42:58;;;;;;;8.50;4.85;;;11.10;99.90;;;;;;5006237;28;20096;-82
2021/08/17 04:45:25;;;;;;;6.88;4.28;;;11.00;99.90;;;;;;4982960;28;20083;-82
2021/08/17 04:47:52;;;;;;;8.07;5.00;;;11.00;99.90;;;;;;5015016;28;20033;-82
2021/08/17 04:50:19;;;;;;;11.32;5.03;;;11.00;99.90;;;;;;5034072;28;20036;-82
2021/08/17 04:52:46;;;;;;;11.30;4.88;;;11.10;99.90;;;;;;5014809;28;20037;-82
2021/08/17 04:55:12;;;;;;;9.75;4.53;;;11.10;99.90;;;;;;5030231;28;20025;-82
2021/08/17 04:57:56;;;;;;;10.82;5.22;;;11.10;99.90;;;;;;5005178;28;20040;-83
2021/08/17 05:00:24;;;;;;;9.27;5.25;;;11.10;99.90;;;;;;5030130;28;20441;-82
2021/08/17 05:02:49;;;;;;;8.23;5.18;;;11.10;99.90;;;;;;5013690;28;20055;-82
2021/08/17 05:05:15;;;;;;;11.95;4.93;;;11.10;99.90;;;;;;5032169;28;20499;-82
2021/08/17 05:07:42;;;;;;;9.73;4.75;;;11.10;99.90;;;;;;5010590;28;20044;-83
2021/08/17 05:10:19;;;;;;;9.18;5.03;;;11.20;99.90;;;;;;4999594;28;20030;-82
2021/08/17 05:12:46;;;;;;;8.05;4.05;;;11.20;99.90;;;;;;5047781;28;20029;-82
2021/08/17 05:15:13;;;;;;;9.45;4.50;;;11.20;99.90;;;;;;5029901;28;20032;-82
2021/08/17 05:17:39;;;;;;;6.65;4.28;;;11.20;99.90;;;;;;4994175;28;20040;-82
2021/08/17 05:20:07;;;;;;;8.57;4.63;;;11.20;99.90;;;;;;4995879;28;20407;-83
2021/08/17 05:22:33;;;;;;;7.93;4.15;;;11.20;99.90;;;;;;5026578;28;20029;-82
2021/08/17 05:24:59;;;;;;;6.85;4.20;;;11.30;99.90;;;;;;5011609;28;20036;-82
2021/08/17 05:27:25;;;;;;;8.25;4.65;;;11.30;99.90;;;;;;5029327;28;20033;-83
2021/08/17 05:29:52;;;;;;;7.72;4.15;;;11.30;99.90;;;;;;5008010;28;20402;-82
2021/08/17 05:32:19;;;;;;;8.60;4.22;;;11.30;99.90;;;;;;5015504;28;20063;-82
2021/08/17 05:34:45;;;;;;;8.93;4.20;;;11.30;99.90;;;;;;5031734;28;20039;-82
2021/08/17 05:37:11;;;;;;;7.00;4.07;;;11.30;99.90;;;;;;5030566;28;20037;-83
2021/08/17 05:39:37;;;;;;;8.15;4.47;;;11.30;99.90;;;;;;5016679;28;20124;-82
2021/08/17 05:42:02;;;;;;;9.02;4.38;;;11.30;99.90;;;;;;5007894;28;20044;-82
2021/08/17 05:44:28;;;;;;;6.03;3.42;;;11.30;99.90;;;;;;4982442;28;20032;-82
2021/08/17 05:46:54;;;;;;;9.25;4.30;;;11.30;99.90;;;;;;5015172;28;20503;-82
2021/08/17 05:49:19;;;;;;;8.07;4.10;;;11.30;99.90;;;;;;5015780;28;20033;-83
2021/08/17 05:51:45;;;;;;;7.78;3.72;;;11.40;99.90;;;;;;5015138;28;20040;-82
2021/08/17 05:54:11;;;;;;;8.63;3.95;;;11.40;99.90;;;;;;5014316;28;20123;-82
2021/08/17 05:56:37;;;;;;;8.85;4.03;;;11.50;99.90;;;;;;4999681;28;20052;-82
2021/08/17 05:59:03;;;;;;;7.70;3.80;;;11.50;99.90;;;;;;5031511;28;20094;-82
2021/08/17 06:01:28;;;;;;;7.60;4.10;;;11.50;99.90;;;;;;5026357;28;20025;-83
2021/08/17 06:03:54;;;;;;;8.43;4.50;;;11.50;99.90;;;;;;5021282;28;20056;-82
2021/08/17 06:06:20;;;;;;;6.85;4.18;;;11.50;99.90;;;;;;5013655;28;20636;-82
2021/08/17 06:08:46;;;;;;;5.32;3.53;;;11.60;99.90;;;;;;4989859;28;20036;-82
2021/08/17 06:11:11;;;;;;;6.60;3.50;;;11.60;99.90;;;;;;5023734;28;20028;-82
2021/08/17 06:13:37;;;;;;;5.55;3.40;;;11.60;99.90;;;;;;5008996;28;20021;-82
2021/08/17 06:16:04;;;;;;;6.70;3.78;;;11.70;99.90;;;;;;5014718;28;20521;-82
2021/08/17 06:18:30;;;;;;;7.30;4.13;;;11.70;99.90;;;;;;5013352;28;20032;-82
2021/08/17 06:20:56;;;;;;;8.63;4.60;;;11.70;99.90;;;;;;4982566;28;20036;-83
2021/08/17 06:23:21;;;;;;;9.55;3.97;;;11.70;99.90;;;;;;4998286;28;20390;-82
2021/08/17 06:25:47;;;;;;;9.07;4.40;;;11.80;99.90;;;;;;5013925;28;20555;-82
2021/08/17 06:28:14;;;;;;;7.47;4.00;;;11.80;99.90;;;;;;5009907;28;20041;-83
2021/08/17 06:30:40;;;;;;;7.93;4.10;;;11.80;99.90;;;;;;5013802;28;20035;-83
2021/08/17 06:33:06;;;;;;;7.80;3.78;;;11.90;99.90;;;;;;5025283;28;20049;-83
2021/08/17 06:35:32;;;;;;;8.65;4.03;;;11.90;99.90;;;;;;5007672;28;20043;-82
2021/08/17 06:37:58;;;;;;;6.70;3.42;;;11.90;99.90;;;;;;5028495;28;20033;-83
2021/08/17 06:40:26;;;;;;;7.97;4.18;;;12.00;99.90;;;;;;5010887;28;20108;-83
2021/08/17 06:42:52;;;;;;;7.10;3.58;;;12.10;99.90;;;;;;5048187;28;20442;-83
2021/08/17 06:45:18;;;;;;;5.30;4.00;;;12.10;99.90;;;;;;5007307;28;20096;-83
2021/08/17 06:47:49;;;;;;;10.48;4.10;;;12.30;99.90;;;;;;5012692;28;20021;-83
2021/08/17 06:50:15;;;;;;;5.05;3.33;;;12.30;99.90;;;;;;5009167;28;20037;-83
2021/08/17 06:52:41;;;;;;;8.23;3.20;;;12.50;99.90;;;;;;5028482;28;20029;-83
2021/08/17 06:55:08;;;;;;;6.38;3.85;;;12.60;99.90;;;;;;5014347;28;20032;-86
2021/08/17 06:57:33;;;;;;;7.63;3.65;;;12.80;99.90;;;;;;5015136;28;20354;-83
2021/08/17 06:59:59;;;;;;;4.95;3.30;;;12.90;99.90;;;;;;4999583;28;20033;-83
2021/08/17 07:02:25;;;;;;;5.57;3.22;;;12.90;99.90;;;;;;5024895;28;20529;-83
2021/08/17 07:04:50;;;;;;;6.88;3.60;;;12.80;99.90;;;;;;5001546;28;20036;-83
2021/08/17 07:07:16;;;;;;;4.30;3.20;;;12.90;99.90;;;;;;4999815;28;20088;-84
2021/08/17 07:09:42;;;;;;;7.97;3.78;;;12.90;99.90;;;;;;4997833;28;20217;-83
2021/08/17 07:12:07;;;;;;;5.63;3.08;;;13.10;99.90;;;;;;4999760;28;20033;-83
2021/08/17 07:14:33;;;;;;;6.20;2.85;;;13.20;99.90;;;;;;4999805;28;20087;-83
2021/08/17 07:16:59;;;;;;;6.13;3.13;;;13.20;99.90;;;;;;5012004;28;20029;-83
2021/08/17 07:19:24;;;;;;;7.25;2.97;;;13.30;99.90;;;;;;5026439;28;20057;-83
2021/08/17 07:21:51;;;;;;;5.55;3.15;;;13.30;99.90;;;;;;5011278;28;20056;-84
2021/08/17 07:24:17;;;;;;;6.45;3.15;;;13.30;99.90;;;;;;4989664;28;20383;-84
2021/08/17 07:26:42;;;;;;;6.70;3.17;;;13.30;99.90;;;;;;5000762;28;20048;-84
2021/08/17 07:29:08;;;;;;;4.78;3.03;;;13.20;99.90;;;;;;5017681;28;20069;-84
2021/08/17 07:31:36;;;;;;;6.40;2.97;;;13.30;99.90;;;;;;5002483;28;20029;-85
2021/08/17 07:34:05;;;;;;;5.78;2.72;;;13.20;99.90;;;;;;5011421;28;20053;-84
2021/08/17 07:36:31;;;;;;;4.47;2.88;;;13.20;99.90;;;;;;5017154;28;20394;-84
2021/08/17 07:38:56;;;;;;;3.83;2.53;;;13.10;99.90;;;;;;5014134;28;20610;-82
2021/08/17 07:41:22;;;;;;;5.32;2.90;;;13.10;99.90;;;;;;5026802;28;20026;-83
2021/08/17 07:43:48;;;;;;;4.45;2.75;;;13.10;99.90;;;;;;5020866;28;20045;-83
2021/08/17 07:46:14;;;;;;;5.25;2.88;;;13.10;99.90;;;;;;5011539;28;20033;-83
2021/08/17 07:48:40;;;;;;;6.00;3.63;;;13.10;99.90;;;;;;5011222;28;20048;-82
2021/08/17 07:51:06;;;;;;;6.28;3.40;;;13.20;99.90;;;;;;5010805;28;20108;-83
2021/08/17 07:53:32;;;;;;;5.35;2.88;;;13.40;99.90;;;;;;5011928;28;20592;-85
2021/08/17 07:55:58;;;;;;;4.63;2.80;;;13.60;99.90;;;;;;5012576;28;20399;-84
2021/08/17 07:58:24;;;;;;;5.15;2.75;;;13.80;99.90;;;;;;5021830;28;20022;-84
2021/08/17 08:00:50;;;;;;;6.70;3.00;;;14.00;99.90;;;;;;5020822;28;20036;-83
2021/08/17 08:03:16;;;;;;;5.88;2.70;;;14.20;99.90;;;;;;5012930;28;20033;-84
2021/08/17 08:05:41;;;;;;;5.78;2.75;;;14.20;99.90;;;;;;5012630;28;20491;-84
2021/08/17 08:08:07;;;;;;;4.60;2.95;;;14.20;99.90;;;;;;5007367;28;20656;-83
2021/08/17 08:10:33;;;;;;;5.40;2.67;;;14.20;99.90;;;;;;5004676;28;20526;-84
2021/08/17 08:12:59;;;;;;;6.28;3.05;;;14.10;99.90;;;;;;5047343;28;20037;-85
2021/08/17 08:15:24;;;;;;;5.13;2.60;;;14.00;99.90;;;;;;5025677;28;20033;-85
2021/08/17 08:17:50;;;;;;;6.45;2.80;;;13.80;99.90;;;;;;5014132;28;20125;-85
2021/08/17 08:20:16;;;;;;;5.63;2.50;;;13.60;99.90;;;;;;4996628;28;20104;-84
2021/08/17 08:22:41;;;;;;;4.05;2.92;;;13.40;99.90;;;;;;4989521;28;20490;-84
2021/08/17 08:25:08;;;;;;;8.30;3.33;;;13.20;99.90;;;;;;5015252;28;20041;-84
2021/08/17 08:27:35;;;;;;;5.07;2.92;;;13.10;99.90;;;;;;5011232;28;20044;-84
2021/08/17 08:30:01;;;;;;;4.30;2.80;;;13.00;99.90;;;;;;5035378;28;20029;-83
2021/08/17 08:32:26;;;;;;;8.20;3.08;;;12.90;99.90;;;;;;4997284;28;20055;-84
2021/08/17 08:34:52;;;;;;;4.97;2.80;;;12.90;99.90;;;;;;4999156;28;20025;-85
2021/08/17 08:37:18;;;;;;;6.90;3.60;;;12.80;99.90;;;;;;4997395;28;20029;-85
2021/08/17 08:39:44;;;;;;;5.90;3.13;;;12.80;99.90;;;;;;5008925;28;20120;-86
2021/08/17 08:42:11;;;;;;;8.70;3.13;;;12.70;99.90;;;;;;5018345;28;20486;-84
2021/08/17 08:44:37;;;;;;;6.75;3.08;;;12.70;99.90;;;;;;4999900;28;20025;-86
2021/08/17 08:47:03;;;;;;;5.88;2.80;;;12.60;99.90;;;;;;5010051;28;20490;-86
2021/08/17 08:52:03;;;;;;;7.53;3.63;;;12.60;99.90;;;;;;5064147;28;20087;-80
2021/08/17 08:54:44;;;;;;;5.72;3.42;;;12.60;99.90;;;;;;5046590;28;20033;-82
2021/08/17 08:57:10;;;;;;;5.50;3.30;;;12.70;99.90;;;;;;5035472;28;20048;-83
2021/08/17 08:59:36;;;;;;;7.78;3.08;;;12.90;99.90;;;;;;5055607;28;20025;-81
2021/08/17 09:02:11;;;;;;;5.97;3.22;;;13.00;99.90;;;;;;5000074;28;20479;-81
2021/08/17 09:04:37;;;;;;;10.30;3.45;;;13.20;99.90;;;;;;5015278;28;20168;-82
2021/08/17 09:07:04;;;;;;;6.10;3.03;;;13.30;99.90;;;;;;5022972;28;20036;-79
2021/08/17 09:09:30;;;;;;;7.07;3.70;;;13.40;99.90;;;;;;5021867;28;20044;-81
2021/08/17 09:11:58;;;;;;;5.55;3.20;;;13.60;99.90;;;;;;4996599;28;20048;-80
2021/08/17 09:14:35;;;;;;;7.90;3.60;;;13.70;99.90;;;;;;5037970;28;20032;-81
2021/08/17 09:17:04;;;;;;;7.60;4.13;;;13.70;99.90;;;;;;5036814;28;20025;-82
2021/08/17 09:19:44;;;;;;;7.40;3.70;;;13.60;99.90;;;;;;5022922;28;20029;-78
2021/08/17 09:22:20;;;;;;;7.57;3.83;;;13.60;99.90;;;;;;5035569;28;20037;-82
2021/08/17 09:24:49;;;;;;;;;;;13.60;99.90;;;;;;5052763;28;20112;-79
2021/08/17 09:27:18;;;;;;;7.10;3.50;;;13.60;99.90;;;;;;5013803;28;19917;-80
2021/08/17 09:29:46;;;;;;;4.93;3.40;;;13.60;99.90;;;;;;5027375;28;20032;-80
2021/08/17 09:32:14;;;;;;;6.50;3.20;;;13.70;99.90;;;;;;5014887;28;20025;-80
2021/08/17 09:34:41;;;;;;;5.75;3.35;;;13.80;99.90;;;;;;5033246;28;20029;-80
2021/08/17 09:37:13;;;;;;;6.65;3.70;;;13.80;99.90;;;;;;5018017;28;20037;-80
2021/08/17 09:39:46;;;;;;;5.53;3.78;;;13.90;99.90;;;;;;5049486;28;20021;-80
2021/08/17 09:42:29;;;;;;;5.95;3.53;;;13.90;99.90;;;;;;5050495;28;20597;-80
2021/08/17 09:45:17;;;;;;;6.50;3.72;;;13.90;99.90;;;;;;5011790;28;20025;-81
2021/08/17 09:47:56;;;;;;;6.43;3.60;;;13.90;99.90;;;;;;5012125;28;20068;-80
2021/08/17 09:50:26;;;;;;;9.52;3.90;;;13.90;99.90;;;;;;5041790;28;20098;-80
2021/08/17 09:53:09;;;;;;;7.07;3.70;;;14.00;99.90;;;;;;5015808;28;20021;-81
2021/08/17 09:55:40;;;;;;;6.43;3.50;;;14.10;99.90;;;;;;5017738;28;20033;-81
2021/08/17 09:58:37;;;;;;;5.35;3.58;;;14.20;99.90;;;;;;5008373;28;20041;-80
2021/08/17 10:01:05;;;;;;;8.82;3.80;;;14.30;99.90;;;;;;4985009;28;20042;-80
2021/08/17 10:03:31;;;;;;;7.82;3.83;;;14.40;99.90;;;;;;5013774;28;20036;-80
2021/08/17 10:05:58;;;;;;;10.68;4.32;;;14.50;99.90;;;;;;5037388;28;20040;-80
2021/08/17 10:08:26;;;;;;;10.68;4.05;;;14.70;99.90;;;;;;5040239;28;20062;-79
2021/08/17 10:10:53;;;;;;;11.43;4.70;;;14.90;99.90;;;;;;5002781;28;20407;-80
2021/08/17 10:13:22;;;;;;;9.55;4.97;;;15.10;99.90;;;;;;5041552;28;20032;-79
2021/08/17 10:15:50;;;;;;;9.50;4.15;;;15.20;99.90;;;;;;5016172;28;20047;-79
2021/08/17 10:18:31;;;;;;;10.52;5.57;;;15.30;99.90;;;;;;5024219;28;20088;-78
2021/08/17 10:21:03;;;;;;;9.85;3.78;;;15.30;99.90;;;;;;5034884;28;20501;-79
2021/08/17 10:23:30;;;;;;;8.25;3.85;;;15.40;99.90;;;;;;5017892;28;20123;-78
2021/08/17 10:25:59;;;;;;;9.75;4.50;;;15.50;99.90;;;;;;5021783;28;20372;-80
2021/08/17 10:28:35;;;;;;;4.90;3.05;;;15.60;99.90;;;;;;5024777;28;20049;-82
2021/08/17 10:31:13;;;;;;;;;;;15.60;99.90;;;;;;5033259;28;20033;-80
2021/08/17 10:33:50;;;;;;;8.98;3.63;;;15.60;99.90;;;;;;5017904;28;19923;-79
2021/08/17 10:36:33;;;;;;;5.35;3.63;;;15.50;99.90;;;;;;5045323;28;20151;-79
2021/08/17 10:39:00;;;;;;;8.93;4.35;;;15.50;99.90;;;;;;4999782;28;20033;-81
2021/08/17 10:41:29;;;;;;;6.38;3.60;;;15.50;99.90;;;;;;5029316;28;20029;-81
2021/08/17 10:43:55;;;;;;;5.28;3.40;;;15.50;99.90;;;;;;4999099;28;20033;-79
2021/08/17 10:46:39;;;;;;;6.60;3.58;;;15.50;99.90;;;;;;5030357;28;20083;-78
2021/08/17 10:49:26;;;;;;;7.85;4.15;;;15.50;99.90;;;;;;5014761;28;20045;-80
2021/08/17 10:52:17;;;;;;;5.72;4.07;;;15.60;99.90;;;;;;5009739;28;20116;-81
2021/08/17 10:54:42;;;;;;;5.32;3.30;;;15.70;99.90;;;;;;5018897;28;20100;-81
2021/08/17 10:57:17;;;;;;;7.30;3.80;;;15.80;99.90;;;;;;5003040;28;20033;-82
2021/08/17 10:59:44;;;;;;;8.15;3.42;;;16.00;99.90;;;;;;5015606;28;20033;-80
2021/08/17 11:02:11;;;;;;;6.95;3.97;;;16.00;99.90;;;;;;5029009;28;20052;-82
2021/08/17 11:04:46;;;;;;;6.40;3.90;;;16.00;99.90;;;;;;5045787;28;20029;-80
2021/08/17 11:07:32;;;;;;;5.70;3.38;;;16.00;99.90;;;;;;5048699;28;20021;-80
2021/08/17 11:10:03;;;;;;;6.45;4.18;;;16.00;99.90;;;;;;5019867;28;20046;-80
2021/08/17 11:12:35;;;;;;;7.85;3.92;;;16.00;99.90;;;;;;5005336;28;20048;-81
2021/08/17 11:15:06;;;;;;;8.07;3.72;;;16.00;99.90;;;;;;5024338;28;20029;-80
2021/08/17 11:17:33;;;;;;;8.75;3.90;;;15.90;99.90;;;;;;5034904;28;20121;-80
2021/08/17 11:19:59;;;;;;;6.65;3.33;;;15.90;99.90;;;;;;4996902;28;20037;-79
2021/08/17 11:22:27;;;;;;;7.03;3.65;;;16.00;99.90;;;;;;5016073;28;20029;-79
2021/08/17 11:24:58;;;;;;;8.45;4.28;;;16.10;99.90;;;;;;5003182;28;20025;-80
2021/08/17 11:27:27;;;;;;;4.45;3.53;;;16.20;99.90;;;;;;5030775;28;20030;-79
2021/08/17 11:30:02;;;;;;;7.38;4.20;;;16.30;99.90;;;;;;5020577;28;20032;-80
2021/08/17 11:32:55;;;;;;;5.70;3.58;;;16.40;99.90;;;;;;5034409;28;20459;-81
2021/08/17 11:35:23;;;;;;;7.20;3.97;;;16.50;99.90;;;;;;5021718;28;20033;-80
2021/08/17 11:37:51;;;;;;;6.18;3.33;;;16.60;99.90;;;;;;5036744;28;20024;-79
2021/08/17 11:40:22;;;;;;;7.32;4.13;;;16.50;99.90;;;;;;5037048;28;20033;-80
2021/08/17 11:42:50;;;;;;;6.10;3.67;;;16.60;99.90;;;;;;5023902;28;20410;-79
2021/08/17 11:45:21;;;;;;;7.45;4.00;;;16.80;99.90;;;;;;5046647;28;20056;-79
2021/08/17 11:47:49;;;;;;;7.53;3.67;;;16.90;99.90;;;;;;5025513;28;20130;-80
2021/08/17 11:50:21;;;;;;;7.40;3.05;;;16.90;99.90;;;;;;5038776;28;20389;-79
2021/08/17 11:52:52;;;;;;;6.35;3.35;;;16.80;99.90;;;;;;5035348;28;20033;-79
2021/08/17 11:55:27;;;;;;;5.13;3.45;;;16.80;99.90;;;;;;5021229;28;20559;-79
2021/08/17 11:57:56;;;;;;;5.47;3.10;;;16.80;99.90;;;;;;5028548;28;20052;-79
2021/08/17 12:00:30;;;;;;;6.13;3.28;;;16.80;99.90;;;;;;5017701;28;20036;-78
2021/08/17 12:03:00;;;;;;;5.55;3.30;;;16.80;99.90;;;;;;5021458;28;20041;-78
2021/08/17 12:05:28;;;;;;;5.00;3.22;;;16.70;99.90;;;;;;5044628;28;20071;-80
2021/08/17 12:07:55;;;;;;;8.50;3.70;;;16.70;99.90;;;;;;5025896;28;20065;-80
2021/08/17 12:10:30;;;;;;;9.57;3.58;;;16.70;99.90;;;;;;5024473;28;20088;-80
2021/08/17 12:13:11;;;;;;;7.20;3.55;;;16.80;99.90;;;;;;5025607;28;20033;-79
2021/08/17 12:15:42;;;;;;;6.60;3.78;;;16.90;99.90;;;;;;5040934;28;20096;-80
2021/08/17 12:18:17;;;;;;;6.22;3.08;;;17.10;99.90;;;;;;5044104;28;20072;-80
2021/08/17 12:20:43;;;;;;;5.28;3.15;;;17.30;99.90;;;;;;5040962;28;20029;-79
2021/08/17 12:23:31;;;;;;;5.22;3.28;;;17.40;99.90;;;;;;5059532;28;20063;-79
2021/08/17 12:26:28;;;;;;;5.40;3.00;;;17.50;99.90;;;;;;5043244;28;20120;-80
2021/08/17 12:28:56;;;;;;;5.38;3.40;;;17.50;99.90;;;;;;5054979;28;20053;-79
2021/08/17 12:31:33;;;;;;;5.28;3.55;;;17.60;99.90;;;;;;5027413;28;20033;-79
2021/08/17 12:34:05;;;;;;;7.40;3.67;;;17.60;99.90;;;;;;5049164;28;20032;-80
2021/08/17 12:36:37;;;;;;;10.00;3.97;;;17.70;99.90;;;;;;5060533;28;20049;-79
2021/08/17 12:39:29;;;;;;;6.90;3.83;;;17.70;99.90;;;;;;5056992;28;20540;-78
2021/08/17 12:41:57;;;;;;;6.90;3.70;;;17.70;99.90;;;;;;5031120;28;20044;-79
2021/08/17 12:44:25;;;;;;;5.68;3.67;;;17.80;99.90;;;;;;5055747;28;20124;-78
2021/08/17 12:47:03;;;;;;;6.55;4.05;;;17.80;99.90;;;;;;5030651;28;20022;-78
2021/08/17 12:49:39;;;;;;;7.15;4.10;;;17.70;99.90;;;;;;5029347;28;20061;-78
2021/08/17 12:52:25;;;;;;;6.55;3.75;;;17.60;99.90;;;;;;5028681;28;20036;-79
2021/08/17 12:54:53;;;;;;;6.40;3.92;;;17.60;99.90;;;;;;5037917;28;20040;-79